createdAt,value
2022-12-19T00:02:25.812Z,93510.75
2022-12-19T00:04:58.877Z,93513.84
2022-12-19T00:07:31.205Z,93518.41
2022-12-19T00:10:04.120Z,93505.38
2022-12-19T00:12:36.521Z,93521.56
2022-12-19T00:15:09.559Z,93521.56
2022-12-19T00:17:41.892Z,93517.84
2022-12-19T00:20:18.488Z,93521.97
2022-12-19T00:22:51.140Z,93531.75
2022-12-19T00:25:23.451Z,93531.97
2022-12-19T00:27:56.075Z,93529.66
2022-12-19T00:30:28.401Z,93530.59
2022-12-19T00:33:01.745Z,93524.81
2022-12-19T00:35:34.753Z,93514.91
2022-12-19T00:38:08.018Z,93522.19
2022-12-19T00:40:40.551Z,93521.75
2022-12-19T00:43:12.860Z,93531.50
2022-12-19T00:45:45.873Z,93530.78
2022-12-19T00:48:18.249Z,93526.94
2022-12-19T00:50:59.031Z,93529.53
2022-12-19T00:53:31.385Z,93527.88
2022-12-19T00:56:05.277Z,93518.13
2022-12-19T00:58:43.432Z,93533.06
2022-12-19T01:01:20.930Z,93531.84
2022-12-19T01:04:26.468Z,93536.84
2022-12-19T01:06:49.061Z,93539.03
2022-12-19T01:09:23.002Z,93542.72
2022-12-19T01:12:13.489Z,93548.06
2022-12-19T01:14:45.814Z,93538.25
2022-12-19T01:17:18.120Z,93540.66
2022-12-19T01:19:50.477Z,93541.41
2022-12-19T01:22:23.519Z,93537.94
2022-12-19T01:24:55.893Z,93539.91
2022-12-19T01:27:28.204Z,93544.88
2022-12-19T01:30:00.943Z,93543.88
2022-12-19T01:32:34.664Z,93549.25
2022-12-19T01:35:09.884Z,93549.00
2022-12-19T01:37:56.855Z,93537.75
2022-12-19T01:40:40.049Z,93538.34
2022-12-19T01:43:13.721Z,93533.59
2022-12-19T01:45:49.632Z,93539.31
2022-12-19T01:48:30.415Z,93532.81
2022-12-19T01:51:06.068Z,93532.22
2022-12-19T01:53:48.998Z,93529.44
2022-12-19T01:56:26.056Z,93519.34
2022-12-19T01:59:06.103Z,93524.66
2022-12-19T02:01:51.011Z,93526.78
2022-12-19T02:04:32.016Z,93519.41
2022-12-19T02:07:11.627Z,93514.81
2022-12-19T02:09:56.820Z,93519.16
2022-12-19T02:12:37.835Z,93512.88
2022-12-19T02:15:14.207Z,93494.59
2022-12-19T02:18:01.297Z,93510.63
2022-12-19T02:20:59.487Z,93512.50
2022-12-19T02:24:12.895Z,93516.72
2022-12-19T02:27:00.019Z,93520.16
2022-12-19T02:30:08.323Z,93522.41
2022-12-19T02:33:00.021Z,93534.44
2022-12-19T02:35:41.032Z,93530.13
2022-12-19T02:38:21.126Z,93518.41
2022-12-19T02:41:00.274Z,93535.28
2022-12-19T02:43:39.596Z,93528.78
2022-12-19T02:46:15.055Z,93535.53
2022-12-19T02:48:49.812Z,93530.09
2022-12-19T02:51:22.762Z,93527.69
2022-12-19T02:53:55.152Z,93527.81
2022-12-19T02:56:39.887Z,93512.41
2022-12-19T02:59:36.126Z,93515.03
2022-12-19T03:02:22.668Z,93518.66
2022-12-19T03:05:07.842Z,93508.63
2022-12-19T03:07:47.759Z,93504.97
2022-12-19T03:10:30.629Z,93499.03
2022-12-19T03:13:09.407Z,93504.28
2022-12-19T03:15:44.976Z,93505.09
2022-12-19T03:18:17.750Z,93515.78
2022-12-19T03:20:56.595Z,93512.72
2022-12-19T03:23:29.639Z,93510.75
2022-12-19T03:26:06.284Z,93513.91
2022-12-19T03:28:42.466Z,93521.59
2022-12-19T03:31:17.380Z,93525.91
2022-12-19T03:33:55.800Z,93532.28
2022-12-19T03:36:32.760Z,93540.50
2022-12-19T03:39:07.683Z,93543.19
2022-12-19T03:42:02.042Z,93545.75
2022-12-19T03:44:37.695Z,93540.41
2022-12-19T03:47:14.940Z,93544.19
2022-12-19T03:49:48.218Z,93548.38
2022-12-19T03:52:28.278Z,93541.53
2022-12-19T03:55:07.891Z,93535.59
2022-12-19T03:57:47.692Z,93538.22
2022-12-19T04:00:24.174Z,93552.94
2022-12-19T04:02:59.083Z,93551.69
2022-12-19T04:05:32.503Z,93562.63
2022-12-19T04:08:08.087Z,93561.88
2022-12-19T04:10:47.092Z,93561.78
2022-12-19T04:13:25.411Z,93558.63
2022-12-19T04:16:03.876Z,93559.09
2022-12-19T04:18:37.789Z,93564.72
2022-12-19T04:21:17.148Z,93569.47
2022-12-19T04:24:01.951Z,93576.34
2022-12-19T04:26:36.211Z,93570.69
2022-12-19T04:29:12.996Z,93572.81
2022-12-19T04:31:45.844Z,93568.59
2022-12-19T04:34:20.645Z,93561.00
2022-12-19T04:36:53.517Z,93561.72
2022-12-19T04:39:27.852Z,93561.59
2022-12-19T04:42:00.267Z,93565.56
2022-12-19T04:44:32.661Z,93572.63
2022-12-19T04:47:04.949Z,93574.47
2022-12-19T04:49:37.328Z,93577.59
2022-12-19T04:52:09.632Z,93577.50
2022-12-19T04:54:42.636Z,93582.25
2022-12-19T04:57:14.991Z,93576.59
2022-12-19T04:59:47.337Z,93596.19
2022-12-19T05:02:20.233Z,93586.94
2022-12-19T05:04:52.703Z,93580.47
2022-12-19T05:07:25.014Z,93590.19
2022-12-19T05:09:57.962Z,93589.50
2022-12-19T05:12:30.365Z,93567.56
2022-12-19T05:15:02.940Z,93590.13
2022-12-19T05:17:35.517Z,93578.31
2022-12-19T05:20:09.319Z,93589.84
2022-12-19T05:22:41.680Z,93585.81
2022-12-19T05:25:15.160Z,93580.34
2022-12-19T05:27:47.452Z,93581.22
2022-12-19T05:30:22.586Z,93584.31
2022-12-19T05:32:54.984Z,93590.91
2022-12-19T05:35:27.658Z,93592.44
2022-12-19T05:38:00.159Z,93594.72
2022-12-19T05:40:33.306Z,93599.03
2022-12-19T05:43:05.935Z,93598.41
2022-12-19T05:45:38.917Z,93593.13
2022-12-19T05:48:11.237Z,93592.16
2022-12-19T05:50:47.375Z,93596.13
2022-12-19T05:53:23.334Z,93589.44
2022-12-19T05:56:08.625Z,93595.84
2022-12-19T05:58:41.976Z,93584.41
2022-12-19T06:01:17.921Z,93595.50
2022-12-19T06:03:50.790Z,93602.09
2022-12-19T06:06:25.855Z,93601.94
2022-12-19T06:08:59.354Z,93599.03
2022-12-19T06:11:32.377Z,93586.88
2022-12-19T06:14:04.704Z,93603.44
2022-12-19T06:16:37.300Z,93603.88
2022-12-19T06:19:09.633Z,93606.69
2022-12-19T06:21:47.972Z,93609.84
2022-12-19T06:24:20.875Z,93604.84
2022-12-19T06:26:54.558Z,93611.88
2022-12-19T06:29:26.836Z,93609.75
2022-12-19T06:31:59.265Z,93612.13
2022-12-19T06:35:02.761Z,93615.31
2022-12-19T06:37:24.316Z,93612.41
2022-12-19T06:39:56.697Z,93614.97
2022-12-19T06:42:29.432Z,93629.44
2022-12-19T06:45:01.737Z,93632.59
2022-12-19T06:47:34.047Z,93625.47
2022-12-19T06:50:06.802Z,93639.22
2022-12-19T06:52:39.081Z,93645.28
2022-12-19T06:55:11.561Z,93647.94
2022-12-19T06:57:45.783Z,93646.19
2022-12-19T07:00:18.212Z,93655.78
2022-12-19T07:02:51.452Z,93655.00
2022-12-19T07:05:24.405Z,93660.28
2022-12-19T07:07:56.777Z,93659.69
2022-12-19T07:10:29.475Z,93657.72
2022-12-19T07:13:03.810Z,93664.25
2022-12-19T07:15:37.161Z,93660.72
2022-12-19T07:18:10.410Z,93666.44
2022-12-19T07:20:45.197Z,93667.34
2022-12-19T07:23:20.606Z,93667.34
2022-12-19T07:25:53.037Z,93665.06
2022-12-19T07:28:26.258Z,93668.81
2022-12-19T07:30:58.617Z,93670.50
2022-12-19T07:33:31.087Z,93679.22
2022-12-19T07:36:03.765Z,93680.56
2022-12-19T07:38:36.427Z,93686.66
2022-12-19T07:41:08.767Z,93683.84
2022-12-19T07:43:41.746Z,93700.75
2022-12-19T07:46:14.366Z,93698.63
2022-12-19T07:48:46.755Z,93702.75
2022-12-19T07:51:19.096Z,93707.78
2022-12-19T07:53:51.428Z,93706.69
2022-12-19T07:56:23.787Z,93710.66
2022-12-19T07:58:56.893Z,93717.19
2022-12-19T08:01:29.744Z,93712.63
2022-12-19T08:04:02.441Z,93724.44
2022-12-19T08:06:40.606Z,93724.25
2022-12-19T08:09:13.595Z,93721.34
2022-12-19T08:11:45.986Z,93714.63
2022-12-19T08:14:19.358Z,93721.72
2022-12-19T08:17:19.166Z,93719.22
2022-12-19T08:19:44.057Z,93707.00
2022-12-19T08:22:16.394Z,93721.63
2022-12-19T08:24:48.747Z,93727.53
2022-12-19T08:27:21.101Z,93729.00
2022-12-19T08:29:54.097Z,93728.16
2022-12-19T08:32:29.599Z,93728.94
2022-12-19T08:35:01.944Z,93726.97
2022-12-19T08:37:34.270Z,93723.91
2022-12-19T08:40:08.299Z,93715.56
2022-12-19T08:42:40.974Z,93716.38
2022-12-19T08:45:14.155Z,93725.69
2022-12-19T08:47:46.464Z,93719.63
2022-12-19T08:50:18.901Z,93714.81
2022-12-19T08:52:51.250Z,93712.97
2022-12-19T08:55:23.621Z,93712.19
2022-12-19T08:57:55.968Z,93707.84
2022-12-19T09:00:28.975Z,93701.97
2022-12-19T09:03:01.514Z,93705.78
2022-12-19T09:06:03.385Z,93701.09
2022-12-19T09:08:28.124Z,93696.78
2022-12-19T09:11:01.717Z,93703.66
2022-12-19T09:13:35.182Z,93685.31
2022-12-19T09:16:11.513Z,93697.63
2022-12-19T09:18:48.618Z,93695.41
2022-12-19T09:21:23.181Z,93691.66
2022-12-19T09:24:03.494Z,93681.75
2022-12-19T09:26:41.381Z,93676.88
2022-12-19T09:29:20.581Z,93679.94
2022-12-19T09:31:56.562Z,93676.16
2022-12-19T09:34:36.987Z,93670.72
2022-12-19T09:37:17.011Z,93669.19
2022-12-19T09:39:50.030Z,93664.44
2022-12-19T09:42:44.218Z,93661.97
2022-12-19T09:45:31.431Z,93663.09
2022-12-19T09:48:12.383Z,93662.13
2022-12-19T09:51:10.459Z,93661.44
2022-12-19T09:53:58.203Z,93654.59
2022-12-19T09:56:45.281Z,93652.66
2022-12-19T09:59:28.181Z,93654.41
2022-12-19T10:02:25.909Z,93647.47
2022-12-19T10:05:16.833Z,93641.81
2022-12-19T10:08:09.191Z,93640.09
2022-12-19T10:12:36.291Z,93645.88
2022-12-19T10:14:02.685Z,93644.34
2022-12-19T10:16:56.337Z,93641.81
2022-12-19T10:19:45.517Z,93636.53
2022-12-19T10:22:30.783Z,93633.78
2022-12-19T10:25:17.478Z,93632.34
2022-12-19T10:27:59.227Z,93614.44
2022-12-19T10:30:39.272Z,93614.19
2022-12-19T10:33:21.894Z,93619.38
2022-12-19T10:36:02.074Z,93619.88
2022-12-19T10:38:49.096Z,93616.91
2022-12-19T10:41:26.439Z,93609.44
2022-12-19T10:44:02.099Z,93606.03
2022-12-19T10:46:39.958Z,93609.19
2022-12-19T10:49:14.293Z,93607.66
2022-12-19T10:51:53.677Z,93606.69
2022-12-19T10:54:38.677Z,93612.44
2022-12-19T10:57:23.840Z,93611.44
2022-12-19T10:59:58.368Z,93607.72
2022-12-19T11:02:41.728Z,93606.34
2022-12-19T11:05:23.831Z,93604.56
2022-12-19T11:08:01.717Z,93605.59
2022-12-19T11:13:25.536Z,93607.13
2022-12-19T11:18:08.686Z,93598.06
2022-12-19T11:21:37.652Z,93599.66
2022-12-19T11:29:30.477Z,93603.00
2022-12-19T11:29:35.297Z,93593.09
2022-12-19T11:29:38.942Z,93601.81
2022-12-19T11:30:06.373Z,93593.09
2022-12-19T11:34:15.949Z,93599.81
2022-12-19T11:36:51.929Z,93604.38
2022-12-19T11:39:32.981Z,93598.44
2022-12-19T11:42:13.430Z,93594.84
2022-12-19T11:44:52.944Z,93594.66
2022-12-19T11:47:33.528Z,93600.56
2022-12-19T11:50:14.694Z,93601.94
2022-12-19T11:53:16.552Z,93598.00
2022-12-19T11:55:50.451Z,93596.00
2022-12-19T11:58:26.162Z,93598.34
2022-12-19T12:01:09.629Z,93591.25
2022-12-19T12:04:03.440Z,93584.50
2022-12-19T12:06:45.523Z,93594.97
2022-12-19T12:13:11.076Z,93592.81
2022-12-19T12:19:24.567Z,93593.44
2022-12-19T12:24:48.025Z,93592.41
2022-12-19T12:31:01.973Z,93598.16
2022-12-19T12:31:13.348Z,93585.78
2022-12-19T12:31:31.948Z,93590.50
2022-12-19T12:31:45.126Z,93586.97
2022-12-19T12:35:16.490Z,93585.38
2022-12-19T12:35:52.121Z,93585.78
2022-12-19T12:40:04.293Z,93589.34
2022-12-19T12:42:50.322Z,93592.69
2022-12-19T12:45:26.905Z,93587.72
2022-12-19T12:47:59.210Z,93590.31
2022-12-19T12:50:33.772Z,93580.81
2022-12-19T12:53:09.953Z,93574.06
2022-12-19T12:55:43.758Z,93572.72
2022-12-19T12:59:02.497Z,93572.13
2022-12-19T13:01:38.047Z,93560.66
2022-12-19T13:04:25.183Z,93577.09
2022-12-19T13:07:15.309Z,93575.91
2022-12-19T13:09:54.683Z,93578.47
2022-12-19T13:12:46.421Z,93588.53
2022-12-19T13:15:42.344Z,93582.44
2022-12-19T13:18:34.005Z,93584.00
2022-12-19T13:21:09.302Z,93586.56
2022-12-19T13:23:47.627Z,93580.25
2022-12-19T13:26:44.986Z,93592.88
2022-12-19T13:29:31.113Z,93593.47
2022-12-19T13:32:24.060Z,93598.81
2022-12-19T13:35:04.805Z,93604.94
2022-12-19T13:39:50.929Z,93601.78
2022-12-19T13:40:55.942Z,93607.72
2022-12-19T13:43:45.491Z,93603.19
2022-12-19T13:46:26.717Z,93597.47
2022-12-19T13:49:03.740Z,93597.06
2022-12-19T13:51:47.711Z,93603.19
2022-12-19T13:54:24.618Z,93605.50
2022-12-19T13:56:57.676Z,93606.34
2022-12-19T13:59:37.774Z,93605.34
2022-12-19T14:02:17.663Z,93608.72
2022-12-19T14:04:50.229Z,93612.84
2022-12-19T14:07:36.690Z,93607.91
2022-12-19T14:11:41.072Z,93611.06
2022-12-19T14:13:53.238Z,93601.75
2022-12-19T14:16:43.819Z,93611.44
2022-12-19T14:19:19.583Z,93618.16
2022-12-19T14:22:04.748Z,93609.66
2022-12-19T14:24:54.109Z,93622.53
2022-12-19T14:28:23.443Z,93616.59
2022-12-19T14:30:33.021Z,93616.38
2022-12-19T14:33:43.766Z,93612.06
2022-12-19T14:36:07.131Z,93611.06
2022-12-19T14:39:25.330Z,93608.91
2022-12-19T14:42:01.945Z,93609.84
2022-12-19T14:54:02.818Z,93590.69
2022-12-19T14:54:04.129Z,93604.34
2022-12-19T14:54:06.891Z,93604.72
2022-12-19T14:54:23.813Z,93589.09
2022-12-19T14:59:27.277Z,93583.50
2022-12-19T15:02:04.242Z,93581.38
2022-12-19T15:04:47.789Z,93575.09
2022-12-19T15:07:25.419Z,93569.38
2022-12-19T15:11:04.091Z,93571.72
2022-12-19T15:14:53.991Z,93569.31
2022-12-19T15:16:24.049Z,93577.63
2022-12-19T15:18:58.148Z,93578.03
2022-12-19T15:21:31.341Z,93589.84
2022-12-19T15:24:03.872Z,93584.13
2022-12-19T15:26:46.992Z,93594.63
2022-12-19T15:29:22.032Z,93587.72
2022-12-19T15:31:54.826Z,93585.56
2022-12-19T15:34:35.426Z,93581.41
2022-12-19T15:37:11.408Z,93586.38
2022-12-19T15:39:44.781Z,93592.88
2022-12-19T15:42:21.288Z,93583.22
2022-12-19T15:44:55.701Z,93604.75
2022-12-19T15:47:32.078Z,93607.53
2022-12-19T15:50:18.460Z,93612.09
2022-12-19T15:52:54.091Z,93608.50
2022-12-19T15:55:29.086Z,93606.72
2022-12-19T15:58:04.987Z,93599.97
2022-12-19T16:00:38.669Z,93606.72
2022-12-19T16:03:23.829Z,93599.22
2022-12-19T16:05:56.838Z,93608.47
2022-12-19T16:08:30.899Z,93611.25
2022-12-19T16:11:03.216Z,93610.84
2022-12-19T16:13:35.599Z,93613.38
2022-12-19T16:16:15.456Z,93614.19
2022-12-19T16:18:48.315Z,93609.44
2022-12-19T16:21:31.278Z,93603.72
2022-12-19T16:24:07.453Z,93614.19
2022-12-19T16:26:40.125Z,93619.13
2022-12-19T16:29:18.907Z,93618.88
2022-12-19T16:31:51.433Z,93627.03
2022-12-19T16:34:24.453Z,93627.41
2022-12-19T16:36:56.783Z,93622.69
2022-12-19T16:39:29.749Z,93624.41
2022-12-19T16:42:04.032Z,93629.09
2022-12-19T16:44:36.506Z,93627.34
2022-12-19T16:47:12.353Z,93623.19
2022-12-19T16:49:44.977Z,93620.97
2022-12-19T16:52:17.403Z,93620.81
2022-12-19T16:54:50.723Z,93627.47
2022-12-19T16:57:23.377Z,93621.66
2022-12-19T16:59:55.735Z,93630.56
2022-12-19T17:02:46.890Z,93626.81
2022-12-19T17:05:23.063Z,93630.16
2022-12-19T17:07:56.192Z,93629.38
2022-12-19T17:10:31.651Z,93632.50
2022-12-19T17:13:04.145Z,93629.94
2022-12-19T17:15:38.146Z,93625.00
2022-12-19T17:18:14.708Z,93619.41
2022-12-19T17:20:47.170Z,93629.06
2022-12-19T17:23:21.242Z,93631.41
2022-12-19T17:25:54.473Z,93627.66
2022-12-19T17:28:27.684Z,93630.81
2022-12-19T17:31:04.151Z,93620.50
2022-12-19T17:33:39.193Z,93635.19
2022-12-19T17:36:15.407Z,93629.63
2022-12-19T17:38:49.590Z,93628.84
2022-12-19T17:41:22.514Z,93631.00
2022-12-19T17:43:54.901Z,93636.63
2022-12-19T17:46:28.052Z,93633.31
2022-12-19T17:49:00.484Z,93623.44
2022-12-19T17:51:32.830Z,93619.75
2022-12-19T17:54:10.435Z,93632.50
2022-12-19T17:56:44.026Z,93632.50
2022-12-19T17:59:16.635Z,93631.91
2022-12-19T18:01:49.093Z,93631.13
2022-12-19T18:04:21.717Z,93627.38
2022-12-19T18:06:54.133Z,93635.06
2022-12-19T18:09:26.504Z,93631.69
2022-12-19T18:11:59.583Z,93628.78
2022-12-19T18:14:31.981Z,93637.63
2022-12-19T18:17:04.721Z,93636.63
2022-12-19T18:19:37.037Z,93650.97
2022-12-19T18:22:12.772Z,93643.06
2022-12-19T18:24:45.087Z,93646.31
2022-12-19T18:27:18.139Z,93647.31
2022-12-19T18:29:50.512Z,93652.94
2022-12-19T18:32:23.366Z,93651.94
2022-12-19T18:34:56.122Z,93645.41
2022-12-19T18:37:28.560Z,93641.47
2022-12-19T18:40:00.886Z,93648.63
2022-12-19T18:42:33.922Z,93640.69
2022-12-19T18:45:08.312Z,93644.09
2022-12-19T18:47:40.884Z,93644.41
2022-12-19T18:50:16.200Z,93647.22
2022-12-19T18:52:49.433Z,93643.91
2022-12-19T18:55:23.394Z,93646.66
2022-12-19T18:57:56.419Z,93654.69
2022-12-19T19:00:28.850Z,93654.47
2022-12-19T19:03:03.762Z,93659.41
2022-12-19T19:05:38.113Z,93661.22
2022-12-19T19:08:17.092Z,93662.22
2022-12-19T19:10:54.407Z,93669.53
2022-12-19T19:13:27.822Z,93668.56
2022-12-19T19:16:02.694Z,93673.09
2022-12-19T19:18:37.697Z,93673.63
2022-12-19T19:21:12.991Z,93656.09
2022-12-19T19:23:48.702Z,93667.59
2022-12-19T19:26:21.453Z,93667.72
2022-12-19T19:28:54.489Z,93663.47
2022-12-19T19:31:29.485Z,93670.22
2022-12-19T19:34:08.285Z,93663.84
2022-12-19T19:36:44.440Z,93657.22
2022-12-19T19:39:19.077Z,93665.50
2022-12-19T19:41:51.579Z,93672.09
2022-12-19T19:44:24.681Z,93671.59
2022-12-19T19:46:57.155Z,93677.50
2022-12-19T19:49:29.521Z,93672.13
2022-12-19T19:52:03.188Z,93674.41
2022-12-19T19:54:35.695Z,93669.53
2022-12-19T19:57:08.018Z,93670.13
2022-12-19T19:59:41.064Z,93668.34
2022-12-19T20:02:13.668Z,93664.41
2022-12-19T20:04:49.344Z,93678.16
2022-12-19T20:07:21.666Z,93672.75
2022-12-19T20:09:53.974Z,93672.69
2022-12-19T20:12:26.316Z,93670.53
2022-12-19T20:14:59.379Z,93670.69
2022-12-19T20:17:31.723Z,93671.47
2022-12-19T20:20:05.127Z,93660.44
2022-12-19T20:22:37.528Z,93654.75
2022-12-19T20:25:10.008Z,93661.09
2022-12-19T20:27:42.411Z,93662.53
2022-12-19T20:30:15.761Z,93658.81
2022-12-19T20:32:48.110Z,93660.19
2022-12-19T20:35:20.636Z,93658.72
2022-12-19T20:37:52.997Z,93657.78
2022-12-19T20:40:25.507Z,93654.72
2022-12-19T20:42:57.843Z,93659.22
2022-12-19T20:45:30.799Z,93659.44
2022-12-19T20:48:03.296Z,93660.34
2022-12-19T20:50:41.258Z,93664.81
2022-12-19T20:53:15.127Z,93667.63
2022-12-19T20:55:57.401Z,93662.84
2022-12-19T20:58:32.592Z,93665.06
2022-12-19T21:01:07.370Z,93660.13
2022-12-19T21:03:40.540Z,93655.31
2022-12-19T21:06:14.715Z,93657.31
2022-12-19T21:08:47.696Z,93660.28
2022-12-19T21:11:20.604Z,93652.25
2022-12-19T21:13:53.298Z,93656.44
2022-12-19T21:16:26.390Z,93657.97
2022-12-19T21:18:58.793Z,93656.53
2022-12-19T21:21:31.106Z,93652.56
2022-12-19T21:24:03.938Z,93651.94
2022-12-19T21:26:36.278Z,93654.41
2022-12-19T21:29:08.654Z,93655.34
2022-12-19T21:31:41.691Z,93653.22
2022-12-19T21:34:14.041Z,93653.03
2022-12-19T21:36:46.446Z,93653.03
2022-12-19T21:39:24.553Z,93652.25
2022-12-19T21:41:56.845Z,93659.53
2022-12-19T21:44:29.316Z,93652.19
2022-12-19T21:47:02.270Z,93652.56
2022-12-19T21:49:34.649Z,93650.78
2022-12-19T21:52:06.938Z,93652.34
2022-12-19T21:54:39.517Z,93648.94
2022-12-19T21:57:11.839Z,93644.78
2022-12-19T21:59:44.109Z,93641.75
2022-12-19T22:02:17.224Z,93638.72
2022-12-19T22:04:49.759Z,93642.53
2022-12-19T22:07:22.089Z,93634.84
2022-12-19T22:09:54.419Z,93629.13
2022-12-19T22:12:26.742Z,93632.13
2022-12-19T22:14:59.177Z,93621.63
2022-12-19T22:17:32.115Z,93623.59
2022-12-19T22:20:05.824Z,93617.25
2022-12-19T22:22:38.191Z,93626.91
2022-12-19T22:25:10.476Z,93618.47
2022-12-19T22:27:42.797Z,93616.03
2022-12-19T22:30:15.321Z,93627.06
2022-12-19T22:32:48.292Z,93622.31
2022-12-19T22:35:20.588Z,93625.47
2022-12-19T22:37:52.989Z,93629.88
2022-12-19T22:40:25.308Z,93634.13
2022-12-19T22:42:57.677Z,93629.09
2022-12-19T22:45:30.240Z,93630.91
2022-12-19T22:48:03.423Z,93626.16
2022-12-19T22:50:36.063Z,93626.72
2022-12-19T22:53:12.753Z,93633.06
2022-12-19T22:55:45.344Z,93619.59
2022-12-19T22:58:17.687Z,93620.19
2022-12-19T23:00:50.064Z,93616.16
2022-12-19T23:03:23.311Z,93606.22
2022-12-19T23:05:55.771Z,93610.47
2022-12-19T23:08:28.133Z,93609.44
2022-12-19T23:11:00.443Z,93602.19
2022-12-19T23:13:33.088Z,93609.31
2022-12-19T23:16:05.695Z,93597.84
2022-12-19T23:18:39.175Z,93605.34
2022-12-19T23:21:14.742Z,93587.91
2022-12-19T23:23:50.766Z,93609.06
2022-12-19T23:26:24.980Z,93590.59
2022-12-19T23:28:59.507Z,93606.88
2022-12-19T23:31:32.034Z,93599.47
2022-12-19T23:34:05.086Z,93605.56
2022-12-19T23:37:09.658Z,93604.72
2022-12-19T23:39:30.597Z,93615.66
2022-12-19T23:42:03.074Z,93610.66
2022-12-19T23:44:35.461Z,93607.13
2022-12-19T23:47:07.763Z,93603.31
2022-12-19T23:49:40.759Z,93601.47
2022-12-19T23:52:19.346Z,93606.41
2022-12-19T23:54:51.763Z,93604.38
2022-12-19T23:57:24.078Z,93596.16
2022-12-19T23:59:56.429Z,93595.28
